Time;durP1;ratioP1;P1;durP2;ratioP2;P2;SDS_P1;SDS_P2;PMS_P1;PMS_P2;Temp;Humidity;BMP_temperature;BMP_pressure;BME280_temperature;BME280_humidity;BME280_pressure;Samples;Min_cycle;Max_cycle;Signal;HPM_P1;HPM_P2
2021/10/31 00:00:08;;;;;;;5.45;3.47;;;;;;;12.74;100.00;99814.03;5276506;28;20027;-79
2021/10/31 00:02:39;;;;;;;5.82;3.70;;;;;;;12.72;100.00;99821.13;5279241;28;20035;-80
2021/10/31 00:05:10;;;;;;;6.05;3.58;;;;;;;12.81;100.00;99815.41;5288629;28;20115;-80
2021/10/31 00:07:40;;;;;;;6.20;3.60;;;;;;;12.91;100.00;99820.03;5279574;28;20115;-80
2021/10/31 00:10:11;;;;;;;6.00;3.63;;;;;;;12.91;100.00;99817.41;5279535;28;20095;-79
2021/10/31 00:12:42;;;;;;;8.40;4.20;;;;;;;12.93;100.00;99826.88;5289576;28;20034;-80
2021/10/31 00:15:13;;;;;;;6.20;3.63;;;;;;;12.97;100.00;99811.81;5270129;28;20035;-80
2021/10/31 00:17:43;;;;;;;7.43;3.90;;;;;;;12.99;100.00;99817.81;5289671;28;20023;-79
2021/10/31 00:20:14;;;;;;;7.88;4.45;;;;;;;13.02;100.00;99822.88;5279726;28;20027;-79
2021/10/31 00:22:45;;;;;;;5.80;3.70;;;;;;;12.98;100.00;99829.25;5292020;28;20031;-79
2021/10/31 00:25:15;;;;;;;8.70;4.00;;;;;;;12.97;100.00;99827.56;5293465;28;20394;-80
2021/10/31 00:27:46;;;;;;;6.45;3.95;;;;;;;12.98;100.00;99835.34;5274775;28;20023;-80
2021/10/31 00:30:16;;;;;;;6.90;4.22;;;;;;;13.00;100.00;99845.75;5274513;28;20027;-80
2021/10/31 00:32:46;;;;;;;6.28;3.90;;;;;;;12.93;100.00;99847.03;5292681;28;20019;-79
2021/10/31 00:35:17;;;;;;;6.53;3.70;;;;;;;12.91;100.00;99852.31;5278012;28;20368;-79
2021/10/31 00:37:47;;;;;;;6.07;3.97;;;;;;;12.93;100.00;99852.28;5275178;28;20030;-80
2021/10/31 00:40:18;;;;;;;8.60;3.90;;;;;;;12.94;100.00;99856.59;5282442;28;20015;-79
2021/10/31 00:42:48;;;;;;;6.45;4.40;;;;;;;12.96;100.00;99854.72;5289354;28;20483;-80
2021/10/31 00:45:18;;;;;;;6.70;4.07;;;;;;;12.85;100.00;99853.63;5292613;28;20020;-79
2021/10/31 00:47:49;;;;;;;5.38;3.65;;;;;;;12.91;100.00;99852.31;5292270;28;20043;-80
2021/10/31 00:50:20;;;;;;;8.95;4.53;;;;;;;12.80;100.00;99866.97;5293004;28;20088;-79
2021/10/31 00:52:51;;;;;;;6.00;4.15;;;;;;;12.66;100.00;99864.25;5292300;28;20016;-79
2021/10/31 00:55:21;;;;;;;5.90;3.72;;;;;;;12.76;100.00;99868.09;5282839;28;20023;-79
2021/10/31 00:57:52;;;;;;;6.22;3.65;;;;;;;12.65;100.00;99878.31;5292263;28;20027;-79
2021/10/31 01:00:22;;;;;;;6.13;4.03;;;;;;;12.64;100.00;99881.84;5270341;28;20047;-79
2021/10/31 01:02:53;;;;;;;7.60;4.47;;;;;;;12.67;100.00;99881.69;5291472;28;20027;-79
2021/10/31 01:05:30;;;;;;;7.75;4.43;;;;;;;12.67;100.00;99886.09;5284483;28;20102;-78
2021/10/31 01:08:12;;;;;;;6.80;4.10;;;;;;;12.74;100.00;99883.06;5288740;28;20019;-79
2021/10/31 01:11:01;;;;;;;8.50;4.57;;;;;;;12.85;100.00;99890.31;5288276;28;20115;-79
2021/10/31 01:13:53;;;;;;;6.88;4.45;;;;;;;12.95;100.00;99897.63;5285479;28;20028;-79
2021/10/31 01:16:45;;;;;;;7.68;4.55;;;;;;;12.92;100.00;99895.16;5269684;28;20433;-78
2021/10/31 01:19:33;;;;;;;6.90;4.47;;;;;;;12.90;100.00;99894.38;5289161;28;20487;-78
2021/10/31 01:22:32;;;;;;;6.82;3.97;;;;;;;12.86;100.00;99892.88;5285232;28;20036;-78
2021/10/31 01:25:34;;;;;;;6.57;4.15;;;;;;;12.86;100.00;99892.88;5265651;28;20039;-78
2021/10/31 01:28:10;;;;;;;6.25;4.35;;;;;;;12.81;100.00;99889.63;5284758;28;20027;-79
2021/10/31 01:31:05;;;;;;;6.53;4.13;;;;;;;12.91;100.00;99893.47;5287719;28;20039;-79
2021/10/31 01:33:56;;;;;;;6.68;4.25;;;;;;;12.86;100.00;99899.88;5284248;28;20059;-79
2021/10/31 01:36:41;;;;;;;6.25;3.92;;;;;;;12.77;100.00;99901.25;5283909;28;20026;-78
2021/10/31 01:39:23;;;;;;;7.63;4.83;;;;;;;12.71;100.00;99898.09;5287617;27;20088;-79
2021/10/31 01:42:13;;;;;;;6.13;4.22;;;;;;;12.71;100.00;99898.09;5283610;28;20111;-79
2021/10/31 01:44:59;;;;;;;7.07;4.00;;;;;;;12.69;100.00;99898.22;5281093;28;20036;-80
2021/10/31 01:47:43;;;;;;;5.80;4.18;;;;;;;12.84;100.00;99901.75;5274843;28;20096;-79
2021/10/31 01:50:33;;;;;;;6.55;3.92;;;;;;;12.80;100.00;99908.09;5287854;28;20099;-78
2021/10/31 01:53:08;;;;;;;7.43;4.35;;;;;;;12.94;100.00;99909.06;5284476;28;20024;-79
2021/10/31 01:55:45;;;;;;;7.00;4.43;;;;;;;12.98;100.00;99897.44;5287666;28;20054;-79
2021/10/31 01:58:18;;;;;;;7.95;4.93;;;;;;;12.93;100.00;99892.44;5277433;28;20689;-79
2021/10/31 02:00:50;;;;;;;8.45;4.80;;;;;;;12.95;100.00;99894.19;5267194;28;20025;-78
2021/10/31 02:03:22;;;;;;;8.45;4.97;;;;;;;12.93;100.00;99894.25;5284054;27;20038;-79
2021/10/31 02:05:54;;;;;;;8.43;4.93;;;;;;;12.85;100.00;99888.53;5280643;28;20019;-79
2021/10/31 02:08:25;;;;;;;7.90;4.40;;;;;;;12.88;100.00;99896.25;5273185;28;20098;-80
2021/10/31 02:10:58;;;;;;;8.88;5.20;;;;;;;12.88;100.00;99893.63;5287122;28;20088;-80
2021/10/31 02:13:30;;;;;;;7.15;4.32;;;;;;;12.95;100.00;99888.94;5272803;28;20448;-79
2021/10/31 02:16:01;;;;;;;10.43;5.45;;;;;;;12.91;100.00;99894.28;5286316;28;20561;-79
2021/10/31 02:18:33;;;;;;;9.85;5.10;;;;;;;12.82;100.00;99899.19;5287467;28;20031;-79
2021/10/31 02:21:05;;;;;;;7.65;4.57;;;;;;;12.93;100.00;99899.50;5287107;28;20027;-79
2021/10/31 02:23:35;;;;;;;7.07;4.75;;;;;;;13.02;100.00;99904.22;5287004;28;20530;-79
2021/10/31 02:26:05;;;;;;;7.25;4.72;;;;;;;13.07;100.00;99907.44;5276233;28;20035;-78
2021/10/31 02:28:39;;;;;;;7.60;5.07;;;;;;;12.96;100.00;99901.94;5286260;28;20023;-79
2021/10/31 02:31:09;;;;;;;8.20;5.15;;;;;;;12.87;100.00;99901.56;5285471;28;20642;-78
2021/10/31 02:33:40;;;;;;;9.88;5.50;;;;;;;12.80;100.00;99906.31;5283937;28;20106;-79
2021/10/31 02:36:10;;;;;;;6.95;5.13;;;;;;;12.91;100.00;99902.16;5278412;28;20509;-78
2021/10/31 02:38:40;;;;;;;8.60;5.22;;;;;;;12.90;100.00;99899.63;5286012;28;20087;-79
2021/10/31 02:41:12;;;;;;;10.02;5.03;;;;;;;12.95;100.00;99904.66;5286884;28;20019;-79
2021/10/31 02:43:42;;;;;;;8.77;5.80;;;;;;;12.88;100.00;99894.47;5272609;28;20494;-79
2021/10/31 02:46:12;;;;;;;8.43;5.20;;;;;;;12.87;100.00;99897.19;5286169;28;20031;-80
2021/10/31 02:48:43;;;;;;;9.32;5.85;;;;;;;12.91;100.00;99901.31;5277097;28;20678;-79
2021/10/31 02:51:37;;;;;;;6.90;5.03;;;;;;;12.89;100.00;99897.94;5286423;28;20034;-78
2021/10/31 02:54:36;;;;;;;9.60;5.05;;;;;;;12.85;100.00;99900.81;5283733;28;20028;-79
2021/10/31 02:57:13;;;;;;;8.05;5.25;;;;;;;12.88;100.00;99915.44;5273890;28;20039;-79
2021/10/31 02:59:46;;;;;;;7.93;5.10;;;;;;;12.91;100.00;99914.44;5286024;28;20107;-79
2021/10/31 03:02:16;;;;;;;8.50;5.07;;;;;;;12.86;100.00;99916.47;5286523;28;20015;-79
2021/10/31 03:04:48;;;;;;;8.77;4.90;;;;;;;12.98;100.00;99913.19;5284155;22;20054;-79
2021/10/31 03:07:20;;;;;;;7.38;4.55;;;;;;;12.97;100.00;99916.75;5278575;28;20031;-80
2021/10/31 03:09:50;;;;;;;6.93;5.07;;;;;;;12.93;100.00;99917.00;5277842;28;20027;-78
2021/10/31 03:12:22;;;;;;;7.75;4.97;;;;;;;12.97;100.00;99914.13;5278888;28;20131;-79
2021/10/31 03:14:52;;;;;;;7.70;5.07;;;;;;;12.87;100.00;99915.53;5270111;28;20046;-79
2021/10/31 03:17:22;;;;;;;7.93;5.38;;;;;;;12.85;100.00;99911.31;5288265;28;20015;-79
2021/10/31 03:19:53;;;;;;;6.72;4.57;;;;;;;12.83;100.00;99916.63;5288633;28;20106;-79
2021/10/31 03:22:23;;;;;;;8.88;5.40;;;;;;;12.87;100.00;99912.06;5288562;28;20085;-79
2021/10/31 03:24:53;;;;;;;8.10;4.90;;;;;;;12.81;100.00;99915.88;5288304;28;20091;-78
2021/10/31 03:27:23;;;;;;;8.43;5.15;;;;;;;12.78;100.00;99923.06;5288329;28;20056;-79
2021/10/31 03:29:54;;;;;;;8.43;5.57;;;;;;;12.72;100.00;99918.16;5269177;28;20116;-79
2021/10/31 03:32:24;;;;;;;7.07;4.82;;;;;;;12.70;100.00;99920.88;5288930;28;20054;-79
2021/10/31 03:34:55;;;;;;;8.13;5.40;;;;;;;12.68;100.00;99919.25;5287994;28;20031;-80
2021/10/31 03:37:26;;;;;;;8.05;5.15;;;;;;;12.78;100.00;99923.91;5279339;28;20019;-79
2021/10/31 03:39:56;;;;;;;8.23;5.57;;;;;;;12.80;100.00;99924.66;5279047;28;20047;-79
2021/10/31 03:42:26;;;;;;;8.70;5.93;;;;;;;12.76;100.00;99936.25;5278536;28;20047;-79
2021/10/31 03:44:58;;;;;;;8.38;5.68;;;;;;;12.75;100.00;99931.09;5269330;28;20034;-79
2021/10/31 03:47:29;;;;;;;8.75;5.97;;;;;;;12.83;100.00;99924.50;5287820;28;20057;-79
2021/10/31 03:49:59;;;;;;;8.88;5.22;;;;;;;12.88;100.00;99922.47;5278897;28;20023;-79
2021/10/31 03:52:29;;;;;;;8.32;4.85;;;;;;;12.83;100.00;99940.22;5288177;28;20053;-79
2021/10/31 03:55:00;;;;;;;10.18;5.25;;;;;;;12.95;100.00;99941.38;5287956;28;20424;-80
2021/10/31 03:57:30;;;;;;;7.18;4.88;;;;;;;12.91;100.00;99959.03;5293535;28;20083;-79
2021/10/31 04:00:03;;;;;;;10.05;4.95;;;;;;;12.99;100.00;99952.47;5276710;28;20027;-79
2021/10/31 04:02:34;;;;;;;5.90;4.40;;;;;;;12.96;100.00;99950.94;5295731;28;20031;-79
2021/10/31 04:05:09;;;;;;;7.57;4.97;;;;;;;12.83;100.00;99961.19;5284646;28;20023;-79
2021/10/31 04:07:41;;;;;;;8.88;5.15;;;;;;;12.81;100.00;99965.69;5280048;28;20578;-79
2021/10/31 04:10:11;;;;;;;6.70;4.85;;;;;;;12.85;100.00;99969.84;5294689;28;20028;-80
2021/10/31 04:12:41;;;;;;;8.75;5.25;;;;;;;12.79;100.00;99967.53;5295675;28;20034;-79
2021/10/31 04:15:11;;;;;;;8.18;5.07;;;;;;;12.71;100.00;99967.13;5276716;28;20028;-79
2021/10/31 04:17:42;;;;;;;9.27;5.57;;;;;;;12.69;100.00;99973.38;5285618;28;20034;-80
2021/10/31 04:20:12;;;;;;;7.93;5.63;;;;;;;12.68;100.00;99983.03;5286522;28;20088;-79
2021/10/31 04:22:45;;;;;;;8.90;5.35;;;;;;;12.65;100.00;99980.56;5294592;28;20038;-79
2021/10/31 04:25:16;;;;;;;7.82;4.95;;;;;;;12.61;100.00;99975.56;5285561;28;20025;-79
2021/10/31 04:27:46;;;;;;;7.85;5.05;;;;;;;12.60;100.00;99985.19;5284905;28;20043;-79
2021/10/31 04:30:16;;;;;;;7.05;5.00;;;;;;;12.57;100.00;99985.38;5285260;28;20740;-79
2021/10/31 04:32:47;;;;;;;6.85;5.00;;;;;;;12.62;100.00;99978.09;5286040;28;20031;-80
2021/10/31 04:35:17;;;;;;;6.93;4.75;;;;;;;12.71;100.00;99980.25;5284651;28;20038;-80
2021/10/31 04:37:47;;;;;;;8.05;5.05;;;;;;;12.70;100.00;99980.31;5294135;28;20023;-79
2021/10/31 04:40:21;;;;;;;7.72;5.47;;;;;;;12.72;100.00;99978.44;5294659;28;20371;-78
2021/10/31 04:42:53;;;;;;;8.88;5.85;;;;;;;12.85;100.00;99984.72;5284807;28;20027;-79
2021/10/31 04:45:23;;;;;;;9.55;6.00;;;;;;;12.89;100.00;99982.69;5290036;28;20023;-80
2021/10/31 04:47:54;;;;;;;7.72;5.28;;;;;;;12.83;100.00;99987.44;5284492;28;20030;-79
2021/10/31 04:50:24;;;;;;;11.98;5.47;;;;;;;12.89;100.00;99987.13;5295248;28;20034;-80
2021/10/31 04:52:54;;;;;;;9.05;5.65;;;;;;;12.82;100.00;99977.88;5284847;28;20550;-80
2021/10/31 04:55:25;;;;;;;7.90;5.53;;;;;;;12.71;100.00;99979.38;5294664;28;20620;-80
2021/10/31 04:57:56;;;;;;;9.20;5.70;;;;;;;12.63;100.00;99982.41;5285385;28;20099;-80
2021/10/31 05:00:27;;;;;;;8.95;5.93;;;;;;;12.61;100.00;99986.88;5285470;28;20019;-80
2021/10/31 05:02:57;;;;;;;7.90;5.53;;;;;;;12.61;100.00;99973.78;5285190;28;20028;-79
2021/10/31 05:05:30;;;;;;;8.23;5.57;;;;;;;12.46;100.00;99977.22;5285590;28;20028;-79
2021/10/31 05:08:01;;;;;;;9.63;5.85;;;;;;;12.48;100.00;99974.53;5278507;28;20015;-79
2021/10/31 05:10:32;;;;;;;8.65;5.70;;;;;;;12.31;100.00;99978.00;5276465;28;20034;-79
2021/10/31 05:13:02;;;;;;;7.85;6.00;;;;;;;12.20;100.00;99969.88;5280653;28;20027;-79
2021/10/31 05:15:33;;;;;;;8.57;6.00;;;;;;;12.14;100.00;99971.97;5272075;28;20038;-80
2021/10/31 05:18:03;;;;;;;11.25;5.95;;;;;;;12.07;100.00;99981.91;5290609;28;20023;-79
2021/10/31 05:20:34;;;;;;;8.77;6.50;;;;;;;11.99;100.00;99976.19;5287556;28;20110;-78
2021/10/31 05:23:04;;;;;;;9.68;5.90;;;;;;;11.95;100.00;99976.44;5288419;28;20502;-79
2021/10/31 05:25:34;;;;;;;10.55;6.15;;;;;;;11.93;100.00;99980.94;5287896;28;20106;-79
2021/10/31 05:28:05;;;;;;;10.25;6.82;;;;;;;11.89;100.00;99980.22;5277222;28;20028;-79
2021/10/31 05:30:35;;;;;;;11.05;6.60;;;;;;;11.90;100.00;99976.69;5288705;28;20039;-79
2021/10/31 05:33:06;;;;;;;8.50;5.88;;;;;;;11.83;100.00;99974.44;5287723;28;20079;-80
2021/10/31 05:35:36;;;;;;;10.00;6.55;;;;;;;11.80;100.00;99979.84;5277972;28;20034;-79
2021/10/31 05:38:06;;;;;;;10.15;7.35;;;;;;;11.79;100.00;99989.44;5287799;28;20031;-80
2021/10/31 05:40:37;;;;;;;11.10;7.05;;;;;;;11.83;100.00;99990.16;5273897;28;20027;-79
2021/10/31 05:43:07;;;;;;;26.17;14.50;;;;;;;11.88;100.00;99975.03;5276628;28;20474;-78
2021/10/31 05:45:37;;;;;;;38.95;18.95;;;;;;;11.97;100.00;99979.84;5283412;28;20536;-79
2021/10/31 05:48:08;;;;;;;40.08;19.77;;;;;;;11.98;100.00;99981.53;5288163;28;20024;-79
2021/10/31 05:50:40;;;;;;;66.80;31.27;;;;;;;11.97;100.00;99975.44;5278094;28;20023;-79
2021/10/31 05:53:10;;;;;;;62.10;31.48;;;;;;;11.91;100.00;99974.88;5279019;28;20068;-79
2021/10/31 05:55:40;;;;;;;38.30;21.50;;;;;;;11.86;100.00;99969.91;5278496;28;20422;-79
2021/10/31 05:58:11;;;;;;;26.77;15.05;;;;;;;11.82;100.00;99978.81;5288721;28;20020;-78
2021/10/31 06:00:41;;;;;;;14.20;8.60;;;;;;;11.84;100.00;99989.22;5288574;28;20032;-79
2021/10/31 06:03:11;;;;;;;11.02;7.80;;;;;;;11.83;100.00;99993.63;5287806;28;20027;-79
2021/10/31 06:05:44;;;;;;;11.57;6.85;;;;;;;11.90;100.00;99994.16;5277888;28;20032;-79
2021/10/31 06:08:17;;;;;;;11.13;7.32;;;;;;;11.89;100.00;99993.31;5287645;28;20094;-80
2021/10/31 06:10:48;;;;;;;10.02;7.07;;;;;;;11.90;100.00;99996.75;5287999;28;20026;-80
2021/10/31 06:13:20;;;;;;;11.55;7.25;;;;;;;12.03;100.00;99993.47;5288362;28;20027;-79
2021/10/31 06:15:50;;;;;;;10.73;7.45;;;;;;;12.02;100.00;100006.63;5287450;28;20039;-79
2021/10/31 06:18:20;;;;;;;10.32;7.07;;;;;;;12.00;100.00;99996.25;5287482;28;20023;-80
2021/10/31 06:20:51;;;;;;;10.98;6.95;;;;;;;11.98;100.00;99994.63;5287098;28;20386;-80
2021/10/31 06:23:21;;;;;;;9.00;6.15;;;;;;;12.18;100.00;99997.94;5287875;28;20386;-80
2021/10/31 06:25:51;;;;;;;9.48;6.75;;;;;;;12.31;100.00;99998.97;5287444;28;20080;-79
2021/10/31 06:28:21;;;;;;;10.52;6.63;;;;;;;12.37;100.00;99993.44;5276857;28;20019;-80
2021/10/31 06:30:52;;;;;;;13.82;6.70;;;;;;;12.36;100.00;99994.38;5290782;28;20562;-80
2021/10/31 06:33:22;;;;;;;10.13;6.40;;;;;;;12.42;100.00;99998.41;5281632;28;20418;-80
2021/10/31 06:35:53;;;;;;;8.85;6.10;;;;;;;12.36;100.00;99996.13;5287627;28;20027;-80
2021/10/31 06:38:24;;;;;;;11.85;6.45;;;;;;;12.34;100.00;100006.69;5288600;28;20031;-79
2021/10/31 06:40:54;;;;;;;8.93;6.28;;;;;;;12.33;100.00;100015.47;5290270;28;20426;-80
2021/10/31 06:43:25;;;;;;;9.00;5.72;;;;;;;12.43;100.00;100008.81;5291583;28;20044;-81
2021/10/31 06:45:55;;;;;;;7.65;5.57;;;;;;;12.44;100.00;100005.28;5272748;28;20028;-78
2021/10/31 06:48:26;;;;;;;8.30;5.43;;;;;;;12.42;100.00;100004.50;5280628;28;20482;-79
2021/10/31 06:50:57;;;;;;;9.77;5.53;;;;;;;12.39;100.00;100009.91;5291219;28;20020;-81
2021/10/31 06:53:27;;;;;;;8.52;5.57;;;;;;;12.31;100.00;100009.44;5281551;28;20074;-78
2021/10/31 06:55:59;;;;;;;8.25;5.57;;;;;;;12.31;100.00;100006.84;5289969;28;20016;-78
2021/10/31 06:58:30;;;;;;;10.90;5.80;;;;;;;12.30;100.00;100007.75;5280129;28;20028;-79
2021/10/31 07:01:00;;;;;;;8.70;5.20;;;;;;;12.21;100.00;100008.25;5283690;28;20508;-80
2021/10/31 07:03:30;;;;;;;7.32;4.70;;;;;;;12.20;100.00;100006.56;5293063;28;20032;-80
2021/10/31 07:06:02;;;;;;;8.55;5.82;;;;;;;12.23;100.00;100009.00;5282570;28;20034;-81
2021/10/31 07:08:32;;;;;;;7.82;5.32;;;;;;;12.31;100.00;100012.06;5272999;28;20072;-81
2021/10/31 07:11:02;;;;;;;7.05;4.88;;;;;;;12.21;100.00;100003.00;5292027;28;20020;-80
2021/10/31 07:13:33;;;;;;;8.25;5.40;;;;;;;12.14;100.00;99996.38;5277693;28;20031;-81
2021/10/31 07:16:04;;;;;;;7.97;5.47;;;;;;;12.11;100.00;99996.53;5275234;28;20028;-81
2021/10/31 07:18:34;;;;;;;10.35;5.22;;;;;;;12.09;100.00;99992.31;5282973;28;20019;-79
2021/10/31 07:21:05;;;;;;;8.02;4.95;;;;;;;12.09;100.00;99987.91;5292627;28;20020;-81
2021/10/31 07:23:35;;;;;;;10.38;5.70;;;;;;;12.10;100.00;99997.47;5291918;28;20028;-81
2021/10/31 07:26:07;;;;;;;8.55;5.97;;;;;;;12.09;100.00;99998.38;5292337;28;20041;-81
2021/10/31 07:28:37;;;;;;;9.30;6.15;;;;;;;12.29;100.00;100010.47;5292803;28;20031;-82
2021/10/31 07:31:09;;;;;;;7.95;5.85;;;;;;;12.21;100.00;100008.25;5284014;28;20028;-81
2021/10/31 07:33:40;;;;;;;8.52;5.93;;;;;;;12.17;100.00;100014.56;5282318;28;20119;-81
2021/10/31 07:36:10;;;;;;;8.80;5.35;;;;;;;12.11;100.00;100006.19;5291980;28;20039;-82
2021/10/31 07:38:42;;;;;;;7.63;5.15;;;;;;;12.25;100.00;99998.44;5292940;28;20051;-80
2021/10/31 07:41:13;;;;;;;6.97;5.22;;;;;;;12.30;100.00;100002.53;5278389;28;20020;-79
2021/10/31 07:43:43;;;;;;;8.45;5.40;;;;;;;12.33;100.00;100009.38;5292120;28;20141;-79
2021/10/31 07:46:13;;;;;;;7.40;4.80;;;;;;;12.31;100.00;100008.63;5276106;28;20039;-81
2021/10/31 07:48:44;;;;;;;9.95;5.72;;;;;;;12.34;100.00;100016.31;5282804;28;20027;-79
2021/10/31 07:51:14;;;;;;;7.72;4.90;;;;;;;12.37;100.00;100009.16;5283448;28;20047;-81
2021/10/31 07:53:45;;;;;;;7.88;4.88;;;;;;;12.51;100.00;100004.06;5283906;28;20023;-81
2021/10/31 07:56:17;;;;;;;8.05;5.05;;;;;;;12.73;100.00;100003.75;5278856;28;20023;-79
2021/10/31 07:58:54;;;;;;;7.18;4.40;;;;;;;12.90;100.00;99991.44;5276945;28;20024;-81
2021/10/31 08:01:25;;;;;;;6.65;4.80;;;;;;;13.00;100.00;99992.63;5272613;28;20055;-81
2021/10/31 08:03:55;;;;;;;8.45;5.00;;;;;;;13.06;100.00;99990.53;5272812;28;20425;-81
2021/10/31 08:06:25;;;;;;;6.68;4.68;;;;;;;13.10;100.00;99992.03;5272236;28;20023;-81
2021/10/31 08:08:56;;;;;;;8.35;4.70;;;;;;;13.13;100.00;99988.41;5289200;28;20024;-81
2021/10/31 08:11:26;;;;;;;6.50;4.85;;;;;;;13.09;100.00;99992.97;5289899;28;20087;-81
2021/10/31 08:13:56;;;;;;;7.40;4.90;;;;;;;13.59;100.00;99990.16;5272441;28;20027;-81
2021/10/31 08:16:27;;;;;;;7.22;4.90;;;;;;;13.54;100.00;99992.22;5291997;28;20030;-82
2021/10/31 08:18:57;;;;;;;6.93;4.38;;;;;;;13.39;100.00;99993.91;5282928;28;20421;-82
2021/10/31 08:21:28;;;;;;;6.95;4.53;;;;;;;13.61;100.00;99988.28;5282743;28;20636;-82
2021/10/31 08:23:58;;;;;;;7.40;4.68;;;;;;;13.48;100.00;99998.66;5281974;28;20077;-81
2021/10/31 08:26:29;;;;;;;9.82;4.72;;;;;;;13.59;100.00;99996.25;5291216;28;20051;-80
2021/10/31 08:29:03;;;;;;;8.48;4.82;;;;;;;13.87;100.00;99985.00;5282876;28;20035;-82
2021/10/31 08:31:38;;;;;;;7.57;4.90;;;;;;;14.10;100.00;99992.41;5292255;28;20036;-82
2021/10/31 08:34:08;;;;;;;6.03;3.95;;;;;;;14.52;100.00;99974.06;5282039;28;20540;-81
2021/10/31 08:36:40;;;;;;;6.30;4.25;;;;;;;14.48;100.00;99980.47;5291601;28;20079;-81
2021/10/31 08:39:10;;;;;;;4.63;3.65;;;;;;;14.44;100.00;99977.16;5273073;28;20731;-82
2021/10/31 08:41:41;;;;;;;7.40;3.67;;;;;;;14.49;100.00;99982.16;5281285;28;20047;-82
2021/10/31 08:44:12;;;;;;;5.25;3.78;;;;;;;14.67;100.00;99967.88;5294310;28;20079;-80
2021/10/31 08:46:42;;;;;;;7.28;3.85;;;;;;;14.90;100.00;99966.38;5279291;28;20019;-80
2021/10/31 08:49:12;;;;;;;5.28;3.28;;;;;;;15.04;100.00;99954.97;5282713;28;20028;-81
2021/10/31 08:51:43;;;;;;;5.25;3.40;;;;;;;15.05;100.00;99952.22;5274539;28;20039;-81
2021/10/31 08:54:14;;;;;;;4.57;3.05;;;;;;;15.25;100.00;99948.31;5276279;28;20056;-82
2021/10/31 08:56:44;;;;;;;4.88;3.50;;;;;;;15.40;100.00;99944.72;5281973;28;20272;-79
2021/10/31 08:59:14;;;;;;;4.63;3.45;;;;;;;15.47;100.00;99936.31;5294364;28;20030;-82
2021/10/31 09:01:46;;;;;;;5.93;3.45;;;;;;;15.43;100.00;99942.75;5289904;28;20406;-81
2021/10/31 09:04:16;;;;;;;5.05;3.20;;;;;;;15.71;100.00;99937.31;5279853;28;20016;-79
2021/10/31 09:06:46;;;;;;;4.97;2.92;;;;;;;15.76;100.00;99929.97;5302434;22;20036;-81
2021/10/31 09:09:19;;;;;;;4.75;3.40;;;;;;;15.61;100.00;99943.31;5275962;28;20020;-81
2021/10/31 09:11:50;;;;;;;5.45;2.95;;;;;;;15.70;100.00;99943.53;5279239;28;20054;-82
2021/10/31 09:14:20;;;;;;;7.22;3.15;;;;;;;15.77;100.00;99934.31;5293740;28;20502;-82
2021/10/31 09:16:50;;;;;;;5.40;3.38;;;;;;;15.87;100.00;99940.63;5280682;28;20038;-82
2021/10/31 09:19:21;;;;;;;5.00;3.42;;;;;;;16.09;100.00;99925.06;5284727;28;20291;-81
2021/10/31 09:21:51;;;;;;;4.20;3.10;;;;;;;16.08;100.00;99923.34;5293385;28;20046;-81
2021/10/31 09:24:21;;;;;;;4.78;3.03;;;;;;;16.23;98.98;99917.03;5289515;28;20037;-82
2021/10/31 09:26:51;;;;;;;4.47;2.80;;;;;;;16.22;100.00;99917.16;5269064;28;20071;-82
2021/10/31 09:29:22;;;;;;;4.93;2.72;;;;;;;16.35;100.00;99912.75;5287218;28;20059;-82
2021/10/31 09:31:53;;;;;;;5.70;3.20;;;;;;;16.38;100.00;99907.28;5279270;28;20033;-82
2021/10/31 09:34:27;;;;;;;4.25;2.97;;;;;;;16.43;100.00;99908.63;5292862;28;20087;-82
2021/10/31 09:36:58;;;;;;;5.15;2.92;;;;;;;16.45;98.64;99895.31;5270952;28;20520;-81
2021/10/31 09:39:28;;;;;;;4.63;2.97;;;;;;;16.54;99.29;99894.69;5292206;28;20026;-82
2021/10/31 09:41:59;;;;;;;4.10;2.58;;;;;;;16.43;100.00;99898.09;5279401;28;20092;-82
2021/10/31 09:44:42;;;;;;;3.88;2.83;;;;;;;16.30;100.00;99899.84;5290531;28;20483;-82
2021/10/31 09:47:13;;;;;;;5.10;2.78;;;;;;;16.32;99.35;99895.31;5290344;28;20020;-81
2021/10/31 09:49:43;;;;;;;4.60;2.55;;;;;;;16.37;100.00;99887.94;5289669;28;20103;-81
2021/10/31 09:52:13;;;;;;;3.58;2.67;;;;;;;16.47;100.00;99888.16;5273009;28;20027;-82
2021/10/31 09:54:46;;;;;;;5.25;2.67;;;;;;;16.66;100.00;99880.59;5283724;28;20054;-82
2021/10/31 09:57:16;;;;;;;3.58;2.17;;;;;;;16.67;100.00;99875.22;5265191;28;20478;-82
2021/10/31 09:59:55;;;;;;;4.57;2.35;;;;;;;16.82;98.46;99874.13;5272179;28;20050;-83
2021/10/31 10:05:23;;;;;;;3.78;2.50;;;;;;;16.78;99.81;99854.22;5282811;28;20524;-82
2021/10/31 10:08:13;;;;;;;3.60;2.05;;;;;;;16.66;98.18;99854.22;5271479;28;20024;-82
2021/10/31 10:10:49;;;;;;;3.80;2.22;;;;;;;16.65;98.90;99855.19;5270784;28;20050;-82
2021/10/31 10:13:27;;;;;;;2.97;2.00;;;;;;;16.84;98.95;99859.03;5272322;28;20147;-82
2021/10/31 10:16:29;;;;;;;2.58;1.75;;;;;;;16.89;98.30;99859.53;5278569;28;20031;-82
2021/10/31 10:19:00;;;;;;;3.13;1.65;;;;;;;17.08;96.51;99862.50;5273855;28;20027;-82
2021/10/31 10:21:31;;;;;;;2.38;1.38;;;;;;;17.18;93.95;99867.00;5291727;28;20397;-82
2021/10/31 10:24:07;;;;;;;2.05;1.38;;;;;;;17.23;94.13;99864.03;5279896;28;20084;-82
2021/10/31 10:26:43;;;;;;;2.40;1.27;;;;;;;17.16;93.86;99858.34;5290172;28;20099;-81
2021/10/31 10:29:20;;;;;;;2.75;1.40;;;;;;;17.25;94.75;99862.97;5280027;28;20038;-81
2021/10/31 10:32:21;;;;;;;2.30;1.50;;;;;;;17.19;94.83;99859.94;5283016;28;20160;-82
2021/10/31 10:34:58;;;;;;;3.22;1.35;;;;;;;17.38;94.33;99862.94;5258060;28;20328;-82
2021/10/31 10:37:36;;;;;;;2.50;1.50;;;;;;;17.30;93.95;99865.28;5281040;28;20043;-82
2021/10/31 10:40:15;;;;;;;4.32;1.60;;;;;;;17.22;96.22;99857.94;5248980;28;20051;-82
2021/10/31 10:42:51;;;;;;;3.05;1.45;;;;;;;17.23;94.60;99856.97;5261549;28;20046;-82
2021/10/31 10:45:26;;;;;;;1.75;1.30;;;;;;;17.17;95.90;99851.28;5283766;28;20035;-81
2021/10/31 10:48:04;;;;;;;2.07;1.40;;;;;;;17.10;95.57;99842.97;5262029;28;20035;-82
2021/10/31 10:50:38;;;;;;;2.05;1.30;;;;;;;17.07;96.35;99837.94;5279921;28;20055;-82
2021/10/31 10:53:24;;;;;;;4.53;1.20;;;;;;;17.06;97.42;99841.53;5264684;28;20019;-82
2021/10/31 10:56:09;;;;;;;2.92;1.42;;;;;;;17.21;97.31;99839.53;5281924;28;20096;-81
2021/10/31 10:58:50;;;;;;;1.80;1.10;;;;;;;17.11;96.11;99842.00;5287069;28;20063;-82
2021/10/31 11:01:20;;;;;;;1.80;1.15;;;;;;;17.15;96.81;99835.53;5274511;28;20512;-82
2021/10/31 11:03:50;;;;;;;2.13;1.20;;;;;;;17.30;95.91;99830.94;5274282;28;20107;-82
2021/10/31 11:06:27;;;;;;;1.98;1.10;;;;;;;17.33;92.28;99822.78;5266841;28;20019;-82
2021/10/31 11:09:13;;;;;;;2.10;0.90;;;;;;;17.21;92.11;99828.97;5272999;28;20024;-81
2021/10/31 11:11:43;;;;;;;3.08;1.00;;;;;;;17.10;92.19;99821.84;5276032;28;20444;-82
2021/10/31 11:14:13;;;;;;;1.25;0.70;;;;;;;17.20;93.89;99825.50;5282671;28;20047;-82
2021/10/31 11:16:45;;;;;;;1.70;0.82;;;;;;;17.13;93.25;99820.78;5268901;28;20050;-82
2021/10/31 11:19:15;;;;;;;1.67;0.85;;;;;;;17.12;93.16;99819.94;5283643;28;20039;-82
2021/10/31 11:21:45;;;;;;;2.55;1.33;;;;;;;17.12;95.03;99813.81;5275669;28;20031;-82
2021/10/31 11:24:16;;;;;;;1.42;1.10;;;;;;;17.03;95.60;99811.84;5287302;28;20058;-81
2021/10/31 11:26:49;;;;;;;1.70;1.20;;;;;;;17.06;95.81;99803.69;5285389;28;20055;-82
2021/10/31 11:29:19;;;;;;;1.83;1.10;;;;;;;17.16;96.23;99800.25;5274454;28;20023;-82
2021/10/31 11:31:50;;;;;;;2.70;1.30;;;;;;;17.20;95.67;99785.88;5274723;28;20034;-82
2021/10/31 11:34:21;;;;;;;1.85;1.23;;;;;;;17.25;94.84;99772.31;5280446;28;20143;-81
2021/10/31 11:36:52;;;;;;;1.63;1.00;;;;;;;17.05;93.38;99762.41;5270207;28;20612;-81
2021/10/31 11:39:23;;;;;;;1.30;0.90;;;;;;;17.12;94.02;99758.38;5285276;28;20028;-82
2021/10/31 11:41:56;;;;;;;1.63;0.85;;;;;;;17.23;95.22;99753.09;5280649;28;20131;-81
2021/10/31 11:44:30;;;;;;;1.75;1.10;;;;;;;17.20;92.73;99748.06;5271846;28;20137;-82
2021/10/31 11:47:20;;;;;;;2.53;1.17;;;;;;;17.28;93.65;99737.78;5273098;28;20057;-81
2021/10/31 11:50:00;;;;;;;1.83;1.00;;;;;;;17.37;94.16;99735.31;5266920;28;20031;-82
2021/10/31 11:52:53;;;;;;;1.63;1.02;;;;;;;17.47;92.07;99736.25;5264550;28;20028;-82